Time;durP1;ratioP1;P1;durP2;ratioP2;P2;SDS_P1;SDS_P2;PMS_P1;PMS_P2;Temp;Humidity;BMP_temperature;BMP_pressure;BME280_temperature;BME280_humidity;BME280_pressure;Samples;Min_cycle;Max_cycle;Signal;HPM_P1;HPM_P2
2023/02/16 00:01:03;;;;;;;40.60;31.15;;;;;;;;;;5072882;28;20372;-85
2023/02/16 00:03:29;;;;;;;40.58;30.65;;;;;;;;;;5069813;28;20414;-85
2023/02/16 00:05:55;;;;;;;41.33;30.83;;;;;;;;;;5072733;28;20391;-84
2023/02/16 00:08:21;;;;;;;43.65;31.75;;;;;;;;;;5072423;28;20433;-85
2023/02/16 00:13:43;;;;;;;47.63;32.27;;;;;;;;;;5072759;28;20384;-85
2023/02/16 00:13:46;;;;;;;46.63;33.75;;;;;;;;;;5072355;28;20368;-85
2023/02/16 00:16:13;;;;;;;49.45;34.22;;;;;;;;;;5072659;28;20497;-85
2023/02/16 00:18:39;;;;;;;50.05;35.00;;;;;;;;;;5054538;28;20407;-86
2023/02/16 00:21:05;;;;;;;52.30;35.05;;;;;;;;;;5072483;28;20421;-85
2023/02/16 00:23:31;;;;;;;50.47;34.70;;;;;;;;;;5072435;28;20857;-85
2023/02/16 00:25:57;;;;;;;51.95;35.22;;;;;;;;;;5071979;28;20391;-85
2023/02/16 00:28:23;;;;;;;50.00;35.10;;;;;;;;;;5072277;28;20379;-85
2023/02/16 00:30:50;;;;;;;52.90;35.38;;;;;;;;;;5072615;28;20380;-86
2023/02/16 00:33:18;;;;;;;47.07;33.37;;;;;;;;;;5071130;28;20378;-85
2023/02/16 00:35:44;;;;;;;44.63;32.70;;;;;;;;;;5072240;28;20437;-85
2023/02/16 00:38:10;;;;;;;43.00;32.05;;;;;;;;;;5072207;28;20404;-85
2023/02/16 00:40:36;;;;;;;42.80;31.90;;;;;;;;;;5072144;28;20382;-85
2023/02/16 00:43:02;;;;;;;44.30;31.97;;;;;;;;;;5071327;28;20403;-85
2023/02/16 00:45:31;;;;;;;43.40;32.72;;;;;;;;;;5072129;28;20853;-84
2023/02/16 00:47:57;;;;;;;41.90;32.45;;;;;;;;;;5072341;28;20387;-85
2023/02/16 00:50:30;;;;;;;42.90;32.72;;;;;;;;;;5072213;28;20379;-85
2023/02/16 00:53:01;;;;;;;42.08;31.67;;;;;;;;;;5071745;28;20999;-85
2023/02/16 00:55:28;;;;;;;39.70;30.17;;;;;;;;;;5071708;28;20414;-85
2023/02/16 00:57:56;;;;;;;39.30;30.73;;;;;;;;;;5072069;28;20843;-85
2023/02/16 01:00:31;;;;;;;43.88;32.40;;;;;;;;;;5071356;28;20365;-86
2023/02/16 01:02:58;;;;;;;40.15;31.17;;;;;;;;;;5071362;28;20380;-85
2023/02/16 01:05:25;;;;;;;44.78;32.95;;;;;;;;;;5071295;28;20423;-86
2023/02/16 01:13:22;;;;;;;57.03;36.78;;;;;;;;;;5071783;28;20433;-85
2023/02/16 01:15:48;;;;;;;54.67;35.83;;;;;;;;;;5071539;28;20886;-86
2023/02/16 01:18:15;;;;;;;62.78;37.30;;;;;;;;;;5071070;28;20411;-86
2023/02/16 01:20:41;;;;;;;57.40;37.30;;;;;;;;;;5070529;28;20387;-86
2023/02/16 01:23:08;;;;;;;57.45;38.20;;;;;;;;;;5071388;28;20378;-86
2023/02/16 01:25:35;;;;;;;79.90;44.97;;;;;;;;;;5071308;28;20413;-85
2023/02/16 01:28:01;;;;;;;93.45;50.55;;;;;;;;;;5071497;28;20396;-86
2023/02/16 01:30:27;;;;;;;101.03;52.83;;;;;;;;;;5071398;28;20375;-85
2023/02/16 01:32:53;;;;;;;104.88;55.33;;;;;;;;;;5071260;28;20379;-86
2023/02/16 01:35:19;;;;;;;103.85;54.53;;;;;;;;;;5071177;28;20741;-85
2023/02/16 01:37:45;;;;;;;103.25;53.38;;;;;;;;;;5070747;28;20403;-85
2023/02/16 01:40:19;;;;;;;139.17;64.17;;;;;;;;;;5070735;28;20407;-85
2023/02/16 01:42:50;;;;;;;129.77;61.70;;;;;;;;;;5070893;28;20443;-86
2023/02/16 01:45:23;;;;;;;133.05;62.40;;;;;;;;;;5071216;28;20376;-85
2023/02/16 01:47:52;;;;;;;135.70;64.72;;;;;;;;;;5071156;28;20915;-86
2023/02/16 01:50:22;;;;;;;150.15;64.70;;;;;;;;;;5071072;28;20422;-85
2023/02/16 01:52:51;;;;;;;106.90;56.42;;;;;;;;;;5071001;28;20391;-85
2023/02/16 01:55:20;;;;;;;112.70;56.22;;;;;;;;;;5070928;28;20474;-86
2023/02/16 01:57:48;;;;;;;70.03;42.05;;;;;;;;;;5070462;28;20411;-85
2023/02/16 02:00:17;;;;;;;56.60;36.85;;;;;;;;;;5068329;28;20467;-86
2023/02/16 02:02:53;;;;;;;46.63;33.67;;;;;;;;;;5070915;28;20379;-85
2023/02/16 02:05:34;;;;;;;48.97;34.53;;;;;;;;;;5070846;28;20384;-85
2023/02/16 02:08:00;;;;;;;46.75;33.72;;;;;;;;;;5073107;28;20402;-85
2023/02/16 02:10:45;;;;;;;48.67;34.17;;;;;;;;;;5075159;28;20932;-86
2023/02/16 02:13:16;;;;;;;49.03;34.65;;;;;;;;;;5074934;28;20706;-85
2023/02/16 02:15:42;;;;;;;52.03;35.67;;;;;;;;;;5074686;28;20411;-87
2023/02/16 02:18:08;;;;;;;56.20;36.67;;;;;;;;;;5074622;28;21013;-86
2023/02/16 02:23:39;;;;;;;59.15;38.13;;;;;;;;;;5075066;28;20363;-85
2023/02/16 02:26:05;;;;;;;58.63;37.67;;;;;;;;;;5074858;28;20467;-86
2023/02/16 02:28:37;;;;;;;54.92;37.13;;;;;;;;;;5074967;28;20379;-86
2023/02/16 02:31:23;;;;;;;53.95;36.60;;;;;;;;;;5074985;28;20738;-86
2023/02/16 02:33:58;;;;;;;59.03;38.33;;;;;;;;;;5069763;28;20461;-86
2023/02/16 02:36:27;;;;;;;57.17;37.47;;;;;;;;;;5066975;28;20387;-87
2023/02/16 02:38:57;;;;;;;55.83;37.67;;;;;;;;;;5074440;28;20415;-86
2023/02/16 02:42:02;;;;;;;63.65;39.25;;;;;;;;;;5074490;28;20491;-85
2023/02/16 02:44:16;;;;;;;61.00;39.37;;;;;;;;;;5074090;28;20422;-86
2023/02/16 02:46:42;;;;;;;64.22;39.30;;;;;;;;;;5074383;28;20376;-86
2023/02/16 02:49:08;;;;;;;61.95;39.55;;;;;;;;;;5074304;28;20792;-86
2023/02/16 02:51:39;;;;;;;59.25;38.40;;;;;;;;;;5073644;28;20463;-86
2023/02/16 03:02:30;;;;;;;60.97;38.95;;;;;;;;;;5073752;28;20797;-86
2023/02/16 03:04:57;;;;;;;60.95;40.25;;;;;;;;;;5073967;28;20463;-86
2023/02/16 03:07:45;;;;;;;63.70;40.45;;;;;;;;;;5073917;28;20383;-86
2023/02/16 03:12:56;;;;;;;59.97;39.28;;;;;;;;;;5074135;28;20383;-87
2023/02/16 03:15:23;;;;;;;65.13;40.88;;;;;;;;;;5073920;28;20376;-86
2023/02/16 03:31:37;;;;;;;67.87;40.23;;;;;;;;;;5071652;28;20383;-88
2023/02/16 03:34:03;;;;;;;68.82;41.08;;;;;;;;;;5071525;28;20376;-87
2023/02/16 03:36:30;;;;;;;63.83;39.63;;;;;;;;;;5071583;28;20384;-86
2023/02/16 03:38:57;;;;;;;63.53;39.50;;;;;;;;;;5070773;28;20412;-87
2023/02/16 03:41:23;;;;;;;66.05;39.92;;;;;;;;;;5071179;28;20924;-87
2023/02/16 03:43:49;;;;;;;56.42;37.05;;;;;;;;;;5071063;28;20380;-88
2023/02/16 03:46:15;;;;;;;56.28;36.50;;;;;;;;;;5071030;28;20459;-88
2023/02/16 03:48:41;;;;;;;58.60;37.00;;;;;;;;;;5071296;28;20471;-88
2023/02/16 03:51:07;;;;;;;61.22;38.10;;;;;;;;;;5071532;28;20419;-87
2023/02/16 03:53:33;;;;;;;74.63;41.10;;;;;;;;;;5073317;28;20505;-87
2023/02/16 03:56:00;;;;;;;83.70;44.20;;;;;;;;;;5066261;28;20444;-86
2023/02/16 03:58:26;;;;;;;90.20;47.38;;;;;;;;;;5053819;28;20417;-86
2023/02/16 04:00:52;;;;;;;85.30;45.70;;;;;;;;;;5055419;28;20459;-86
2023/02/16 04:03:17;;;;;;;80.10;43.50;;;;;;;;;;5052241;28;20803;-86
2023/02/16 04:05:44;;;;;;;73.32;42.00;;;;;;;;;;5061915;28;20415;-87
2023/02/16 04:08:10;;;;;;;66.63;39.30;;;;;;;;;;5054607;28;20390;-87
2023/02/16 04:10:37;;;;;;;63.10;38.97;;;;;;;;;;5053431;28;20473;-87
2023/02/16 04:13:03;;;;;;;63.58;37.63;;;;;;;;;;5054604;28;20373;-88
2023/02/16 04:15:29;;;;;;;56.15;37.50;;;;;;;;;;5052441;28;20423;-87
2023/02/16 04:17:56;;;;;;;60.03;38.53;;;;;;;;;;5066533;28;20408;-85
2023/02/16 04:20:23;;;;;;;57.77;37.23;;;;;;;;;;5072475;28;20380;-84
2023/02/16 04:22:50;;;;;;;57.50;36.67;;;;;;;;;;5071825;28;20513;-85
2023/02/16 04:25:17;;;;;;;57.33;37.60;;;;;;;;;;5072547;28;20474;-85
2023/02/16 04:27:43;;;;;;;58.30;37.10;;;;;;;;;;5069336;28;20381;-86
2023/02/16 04:30:11;;;;;;;56.80;36.80;;;;;;;;;;5072059;28;20409;-85
2023/02/16 04:32:37;;;;;;;57.97;36.25;;;;;;;;;;5072343;28;20383;-85
2023/02/16 04:35:03;;;;;;;65.60;39.47;;;;;;;;;;5072282;28;20395;-85
2023/02/16 04:37:29;;;;;;;64.93;38.40;;;;;;;;;;5069422;28;20450;-85
2023/02/16 04:39:55;;;;;;;62.20;38.30;;;;;;;;;;5063532;28;20389;-89
2023/02/16 04:42:21;;;;;;;66.75;40.00;;;;;;;;;;5063387;28;20407;-84
2023/02/16 04:44:47;;;;;;;65.78;39.28;;;;;;;;;;5073589;22;20436;-85
2023/02/16 04:47:14;;;;;;;57.22;36.38;;;;;;;;;;5033243;28;20389;-85
2023/02/16 04:49:40;;;;;;;54.50;35.88;;;;;;;;;;5051810;28;20809;-85
2023/02/16 04:52:06;;;;;;;57.50;36.17;;;;;;;;;;5037509;28;20491;-85
2023/02/16 04:54:32;;;;;;;55.85;36.38;;;;;;;;;;5062567;28;20380;-86
2023/02/16 04:56:58;;;;;;;56.85;36.05;;;;;;;;;;5071559;28;20376;-85
2023/02/16 04:59:24;;;;;;;63.47;38.20;;;;;;;;;;5071967;28;20387;-85
2023/02/16 05:01:51;;;;;;;64.28;37.90;;;;;;;;;;5071595;28;20372;-85
2023/02/16 05:04:17;;;;;;;78.35;41.65;;;;;;;;;;5072087;28;20425;-85
2023/02/16 05:06:43;;;;;;;91.20;45.15;;;;;;;;;;5054148;28;20388;-86
2023/02/16 05:09:09;;;;;;;94.30;46.45;;;;;;;;;;5071912;28;20837;-86
2023/02/16 05:14:40;;;;;;;105.82;47.92;;;;;;;;;;5070931;28;20394;-85
2023/02/16 05:17:06;;;;;;;105.25;47.67;;;;;;;;;;5069773;28;20502;-86
2023/02/16 05:19:32;;;;;;;99.50;47.13;;;;;;;;;;5071190;28;20738;-86
2023/02/16 05:21:58;;;;;;;100.35;47.70;;;;;;;;;;5071603;28;20892;-86
2023/02/16 05:24:24;;;;;;;110.85;54.55;;;;;;;;;;5071568;28;20391;-86
2023/02/16 05:26:50;;;;;;;93.95;46.95;;;;;;;;;;5071829;28;20799;-86
2023/02/16 05:29:16;;;;;;;88.55;45.47;;;;;;;;;;5071514;28;20868;-85
2023/02/16 05:31:42;;;;;;;73.97;40.03;;;;;;;;;;5071427;28;20438;-85
2023/02/16 05:34:08;;;;;;;69.73;40.10;;;;;;;;;;5070995;28;20844;-86
2023/02/16 05:36:34;;;;;;;75.57;40.15;;;;;;;;;;5071033;28;20387;-86
2023/02/16 05:39:00;;;;;;;67.05;37.58;;;;;;;;;;5071321;28;20483;-86
2023/02/16 05:41:26;;;;;;;65.57;37.58;;;;;;;;;;5071026;28;20445;-86
2023/02/16 05:43:56;;;;;;;63.08;36.15;;;;;;;;;;5070851;28;20395;-86
2023/02/16 05:46:23;;;;;;;66.85;37.83;;;;;;;;;;5071358;28;20376;-85
2023/02/16 05:48:49;;;;;;;72.70;39.83;;;;;;;;;;5071267;28;20380;-86
2023/02/16 05:51:15;;;;;;;70.78;40.40;;;;;;;;;;5070979;28;20371;-86
2023/02/16 05:53:41;;;;;;;70.35;39.00;;;;;;;;;;5070446;28;20391;-86
2023/02/16 05:56:07;;;;;;;64.45;36.15;;;;;;;;;;5071246;28;20737;-85
2023/02/16 05:58:34;;;;;;;67.50;35.53;;;;;;;;;;5070713;28;20540;-86
2023/02/16 06:01:00;;;;;;;66.93;35.90;;;;;;;;;;5059494;28;20424;-86
2023/02/16 06:03:26;;;;;;;71.07;37.45;;;;;;;;;;5071180;28;20887;-86
2023/02/16 06:05:53;;;;;;;99.88;49.33;;;;;;;;;;5071008;28;20433;-86
2023/02/16 06:08:19;;;;;;;75.32;40.58;;;;;;;;;;5070747;28;20384;-86
2023/02/16 06:10:45;;;;;;;76.55;39.25;;;;;;;;;;5070871;28;20887;-86
2023/02/16 06:13:12;;;;;;;72.63;37.85;;;;;;;;;;5071047;28;20479;-88
2023/02/16 06:15:38;;;;;;;81.20;40.35;;;;;;;;;;5070398;28;20422;-85
2023/02/16 06:18:04;;;;;;;81.20;40.55;;;;;;;;;;5070697;28;20439;-87
2023/02/16 06:20:30;;;;;;;80.65;40.42;;;;;;;;;;5070946;28;20374;-86
2023/02/16 06:22:56;;;;;;;86.07;40.10;;;;;;;;;;5070764;28;20425;-87
2023/02/16 06:25:22;;;;;;;84.25;40.10;;;;;;;;;;5070328;28;20865;-86
2023/02/16 06:27:48;;;;;;;86.35;41.70;;;;;;;;;;5069630;28;20384;-86
2023/02/16 06:30:14;;;;;;;91.18;41.83;;;;;;;;;;5070188;28;20385;-86
2023/02/16 06:32:40;;;;;;;94.90;43.45;;;;;;;;;;5069896;28;20466;-86
2023/02/16 06:35:07;;;;;;;92.95;43.53;;;;;;;;;;5052059;28;20472;-86
2023/02/16 06:37:33;;;;;;;86.68;41.03;;;;;;;;;;5069850;28;20411;-86
2023/02/16 06:39:59;;;;;;;92.87;43.43;;;;;;;;;;5053081;28;20466;-86
2023/02/16 06:42:25;;;;;;;96.35;44.35;;;;;;;;;;5070655;28;20714;-86
2023/02/16 06:44:51;;;;;;;98.13;44.53;;;;;;;;;;5070338;28;20406;-85
2023/02/16 06:47:16;;;;;;;96.50;46.05;;;;;;;;;;5070940;28;20426;-84
2023/02/16 06:49:42;;;;;;;99.67;47.33;;;;;;;;;;5071306;28;20464;-85
2023/02/16 06:52:08;;;;;;;103.43;48.58;;;;;;;;;;5079918;28;20388;-88
2023/02/16 06:54:34;;;;;;;110.03;49.25;;;;;;;;;;5084077;28;20391;-85
2023/02/16 06:57:00;;;;;;;111.90;50.72;;;;;;;;;;5085510;28;20873;-83
2023/02/16 06:59:26;;;;;;;104.90;50.67;;;;;;;;;;5089496;28;20398;-85
2023/02/16 07:01:52;;;;;;;114.70;52.58;;;;;;;;;;5083287;28;20391;-86
2023/02/16 07:04:18;;;;;;;108.78;52.33;;;;;;;;;;5077982;28;20395;-85
2023/02/16 07:06:44;;;;;;;111.82;52.10;;;;;;;;;;5075646;28;20380;-85
2023/02/16 07:09:10;;;;;;;86.20;43.90;;;;;;;;;;5074360;28;21096;-85
2023/02/16 07:11:36;;;;;;;68.80;38.65;;;;;;;;;;5074244;28;20496;-83
2023/02/16 07:14:05;;;;;;;71.22;40.75;;;;;;;;;;5074446;28;20445;-85
2023/02/16 07:16:31;;;;;;;98.93;47.78;;;;;;;;;;5075192;28;20391;-87
2023/02/16 07:18:57;;;;;;;98.07;47.72;;;;;;;;;;5074200;28;20929;-86
2023/02/16 07:21:23;;;;;;;97.82;46.28;;;;;;;;;;5074215;28;20372;-85
2023/02/16 07:23:49;;;;;;;93.93;46.47;;;;;;;;;;5074289;28;20465;-85
2023/02/16 07:26:15;;;;;;;97.72;46.85;;;;;;;;;;5087316;28;20374;-84
2023/02/16 07:28:41;;;;;;;85.45;42.65;;;;;;;;;;5074492;28;20376;-85
2023/02/16 07:31:08;;;;;;;88.45;44.45;;;;;;;;;;5074013;28;20380;-85
2023/02/16 07:33:34;;;;;;;91.07;45.83;;;;;;;;;;5073744;28;20417;-84
2023/02/16 07:36:00;;;;;;;97.45;45.63;;;;;;;;;;5073521;28;20387;-86
2023/02/16 07:38:26;;;;;;;109.45;49.88;;;;;;;;;;5073577;28;20765;-84
2023/02/16 07:40:52;;;;;;;97.20;48.65;;;;;;;;;;5073760;28;20808;-85
2023/02/16 07:43:18;;;;;;;89.23;46.57;;;;;;;;;;5073634;28;20517;-86
2023/02/16 07:45:44;;;;;;;92.10;46.35;;;;;;;;;;5073063;28;20403;-86
2023/02/16 07:48:10;;;;;;;92.40;46.60;;;;;;;;;;5072969;28;20510;-86
2023/02/16 07:50:36;;;;;;;88.13;45.63;;;;;;;;;;5073317;28;20380;-87
2023/02/16 07:53:02;;;;;;;102.78;48.42;;;;;;;;;;5073264;28;20384;-90
2023/02/16 07:55:29;;;;;;;104.22;50.75;;;;;;;;;;5073179;28;20418;-89
2023/02/16 07:57:58;;;;;;;101.68;50.20;;;;;;;;;;5073402;28;20403;-85
2023/02/16 08:00:25;;;;;;;105.15;51.55;;;;;;;;;;5073191;28;20407;-85
2023/02/16 08:02:51;;;;;;;114.55;52.42;;;;;;;;;;5073179;28;20376;-89
2023/02/16 08:05:17;;;;;;;114.82;54.15;;;;;;;;;;5071924;28;20407;-87
2023/02/16 08:07:44;;;;;;;140.10;61.03;;;;;;;;;;5063455;28;20474;-88
2023/02/16 08:10:10;;;;;;;136.23;60.83;;;;;;;;;;5072917;28;20465;-86
2023/02/16 08:12:36;;;;;;;131.82;58.10;;;;;;;;;;5072725;28;20378;-85
2023/02/16 08:15:03;;;;;;;119.63;56.65;;;;;;;;;;5072792;28;20853;-86
2023/02/16 08:17:29;;;;;;;125.65;58.05;;;;;;;;;;5072844;28;20400;-84
2023/02/16 08:19:55;;;;;;;137.32;61.22;;;;;;;;;;5073237;28;20376;-84
2023/02/16 08:22:21;;;;;;;143.43;63.25;;;;;;;;;;5072708;28;20379;-85
2023/02/16 08:24:47;;;;;;;141.45;63.35;;;;;;;;;;5071611;28;20403;-84
2023/02/16 08:27:13;;;;;;;145.30;64.53;;;;;;;;;;5072254;28;20415;-83
2023/02/16 08:29:40;;;;;;;150.32;65.18;;;;;;;;;;5071675;28;20383;-83
2023/02/16 08:32:06;;;;;;;143.98;63.72;;;;;;;;;;5071928;28;20804;-84
2023/02/16 08:34:32;;;;;;;149.82;65.90;;;;;;;;;;5071778;28;20395;-84
2023/02/16 08:36:59;;;;;;;141.02;62.75;;;;;;;;;;5071603;28;20383;-84
2023/02/16 08:39:26;;;;;;;128.65;58.17;;;;;;;;;;5073287;28;20733;-84
2023/02/16 08:41:52;;;;;;;129.05;58.80;;;;;;;;;;5072750;28;20372;-82
2023/02/16 08:44:20;;;;;;;119.38;56.67;;;;;;;;;;5072919;28;20492;-83
2023/02/16 08:46:47;;;;;;;105.95;51.55;;;;;;;;;;5073197;28;20376;-83
2023/02/16 08:49:14;;;;;;;102.28;49.88;;;;;;;;;;5072651;28;20376;-83
2023/02/16 08:51:42;;;;;;;113.75;53.33;;;;;;;;;;5073281;28;20383;-82
2023/02/16 08:54:08;;;;;;;112.00;53.08;;;;;;;;;;5072750;28;20382;-83
2023/02/16 08:56:35;;;;;;;112.22;53.85;;;;;;;;;;5072503;28;20928;-82
2023/02/16 08:59:01;;;;;;;113.53;54.95;;;;;;;;;;5072725;28;20407;-85
2023/02/16 09:01:27;;;;;;;97.25;48.55;;;;;;;;;;5072706;28;20372;-86
2023/02/16 09:03:53;;;;;;;88.90;47.25;;;;;;;;;;5072670;28;20787;-85
2023/02/16 09:06:20;;;;;;;91.55;47.30;;;;;;;;;;5072896;28;20729;-84
2023/02/16 09:08:53;;;;;;;92.90;48.45;;;;;;;;;;5072335;28;20380;-85
2023/02/16 09:11:19;;;;;;;102.47;51.10;;;;;;;;;;5072441;28;20425;-85
2023/02/16 09:13:46;;;;;;;106.38;53.60;;;;;;;;;;5054638;28;20956;-84
2023/02/16 09:16:14;;;;;;;102.20;51.03;;;;;;;;;;5072610;28;20415;-85
2023/02/16 09:18:40;;;;;;;95.57;49.90;;;;;;;;;;5072492;28;20933;-84
2023/02/16 09:21:10;;;;;;;98.68;50.15;;;;;;;;;;5072614;28;20493;-85
2023/02/16 09:23:37;;;;;;;108.72;53.53;;;;;;;;;;5072029;28;20376;-84
2023/02/16 09:26:06;;;;;;;112.80;53.97;;;;;;;;;;5072281;28;20384;-84
2023/02/16 09:28:32;;;;;;;114.10;55.33;;;;;;;;;;5072052;28;20375;-85
2023/02/16 09:30:58;;;;;;;116.30;56.78;;;;;;;;;;5072457;28;20380;-84
2023/02/16 09:33:25;;;;;;;112.97;55.28;;;;;;;;;;5072226;28;20434;-84
2023/02/16 09:35:51;;;;;;;124.20;59.63;;;;;;;;;;5072445;28;20463;-84
2023/02/16 09:38:17;;;;;;;123.72;57.50;;;;;;;;;;5072048;28;20399;-84
2023/02/16 09:40:44;;;;;;;127.27;61.17;;;;;;;;;;5072493;28;20472;-84
2023/02/16 09:43:25;;;;;;;127.97;61.67;;;;;;;;;;5071988;28;20430;-84
2023/02/16 09:45:53;;;;;;;127.38;60.33;;;;;;;;;;5074397;28;20406;-84
2023/02/16 09:48:23;;;;;;;130.63;61.40;;;;;;;;;;5072982;28;20948;-85
2023/02/16 09:50:51;;;;;;;118.28;56.38;;;;;;;;;;5072528;28;20471;-85
2023/02/16 09:53:32;;;;;;;114.60;56.25;;;;;;;;;;5072164;28;20467;-83
2023/02/16 09:56:02;;;;;;;109.05;55.97;;;;;;;;;;5053426;28;20903;-85
2023/02/16 09:58:33;;;;;;;123.00;55.53;;;;;;;;;;5071703;28;20397;-85
2023/02/16 10:01:12;;;;;;;111.60;55.03;;;;;;;;;;5071854;28;20387;-85
2023/02/16 10:03:48;;;;;;;100.10;52.53;;;;;;;;;;5070402;28;25141;-85
2023/02/16 10:06:23;;;;;;;86.65;48.72;;;;;;;;;;5071162;28;20372;-85
2023/02/16 10:08:55;;;;;;;93.07;51.05;;;;;;;;;;5071231;28;20747;-85
2023/02/16 10:11:40;;;;;;;95.03;52.50;;;;;;;;;;5056964;28;20385;-85
2023/02/16 10:14:29;;;;;;;87.32;49.75;;;;;;;;;;5070955;28;20408;-85
2023/02/16 10:16:55;;;;;;;83.93;47.92;;;;;;;;;;5070847;28;20379;-86
2023/02/16 10:19:37;;;;;;;72.40;44.25;;;;;;;;;;5070523;28;20454;-85
2023/02/16 10:22:05;;;;;;;69.57;43.95;;;;;;;;;;5074465;28;20372;-84
2023/02/16 10:24:38;;;;;;;70.17;44.67;;;;;;;;;;5073815;28;20869;-84
2023/02/16 10:27:07;;;;;;;74.22;45.97;;;;;;;;;;5074176;28;20375;-84
2023/02/16 10:29:33;;;;;;;75.45;45.47;;;;;;;;;;5078933;28;20932;-83
2023/02/16 10:31:59;;;;;;;71.03;45.17;;;;;;;;;;5060612;28;20865;-83
2023/02/16 10:34:31;;;;;;;71.47;45.85;;;;;;;;;;5077064;28;20390;-84
2023/02/16 10:37:16;;;;;;;70.95;45.58;;;;;;;;;;5075441;28;20394;-86
2023/02/16 10:40:08;;;;;;;68.25;44.08;;;;;;;;;;5075535;28;20368;-87
2023/02/16 10:42:40;;;;;;;77.20;47.63;;;;;;;;;;5062559;28;20499;-85
2023/02/16 10:45:06;;;;;;;80.13;49.65;;;;;;;;;;5074690;28;20807;-87
2023/02/16 10:47:35;;;;;;;70.63;45.95;;;;;;;;;;5057181;28;20943;-85
2023/02/16 10:50:01;;;;;;;68.28;45.10;;;;;;;;;;5074582;28;20385;-86
2023/02/16 10:52:29;;;;;;;68.63;46.30;;;;;;;;;;5074172;28;20380;-84
2023/02/16 10:54:55;;;;;;;67.97;45.50;;;;;;;;;;5074199;28;20402;-87
2023/02/16 10:57:31;;;;;;;63.47;42.50;;;;;;;;;;5074497;28;20407;-88
2023/02/16 10:59:58;;;;;;;59.42;42.08;;;;;;;;;;5074414;28;20419;-83
2023/02/16 11:02:45;;;;;;;57.10;38.67;;;;;;;;;;5073967;28;20466;-85
2023/02/16 11:05:26;;;;;;;61.65;39.90;;;;;;;;;;5074276;28;20380;-86
2023/02/16 11:07:53;;;;;;;63.20;41.38;;;;;;;;;;5074082;28;20380;-86
2023/02/16 11:10:21;;;;;;;60.60;41.67;;;;;;;;;;5074159;28;20550;-85
2023/02/16 11:12:54;;;;;;;67.38;43.88;;;;;;;;;;5079645;28;20503;-85
2023/02/16 11:15:24;;;;;;;77.97;46.05;;;;;;;;;;5074357;28;20377;-82
2023/02/16 11:18:11;;;;;;;71.38;45.13;;;;;;;;;;5073994;28;20399;-85
2023/02/16 11:20:43;;;;;;;62.17;42.57;;;;;;;;;;5073876;28;20429;-82
2023/02/16 11:23:25;;;;;;;68.72;45.42;;;;;;;;;;5074099;28;20895;-83
2023/02/16 11:26:01;;;;;;;79.10;49.90;;;;;;;;;;5073599;28;20405;-83
2023/02/16 11:28:27;;;;;;;91.88;53.97;;;;;;;;;;5073351;28;20515;-83
2023/02/16 11:30:59;;;;;;;80.00;51.60;;;;;;;;;;5073762;28;20455;-82
2023/02/16 11:33:26;;;;;;;77.68;49.55;;;;;;;;;;5073674;28;20394;-83
2023/02/16 11:35:53;;;;;;;82.28;51.40;;;;;;;;;;5073798;28;20471;-85
2023/02/16 11:38:35;;;;;;;107.43;54.05;;;;;;;;;;5060607;28;20403;-83
2023/02/16 11:41:03;;;;;;;76.37;49.07;;;;;;;;;;5072511;28;20544;-83
2023/02/16 11:43:31;;;;;;;68.20;46.80;;;;;;;;;;5073374;28;20380;-79
2023/02/16 11:45:58;;;;;;;74.65;49.92;;;;;;;;;;5072790;28;20380;-80
2023/02/16 11:48:27;;;;;;;77.43;49.80;;;;;;;;;;5069560;28;20472;-81
2023/02/16 11:50:58;;;;;;;81.28;52.03;;;;;;;;;;5073217;28;20444;-81
2023/02/16 11:53:28;;;;;;;72.53;49.05;;;;;;;;;;5073367;28;20425;-82
2023/02/16 11:56:13;;;;;;;64.70;43.88;;;;;;;;;;5072756;28;20383;-81
2023/02/16 11:58:39;;;;;;;62.90;43.95;;;;;;;;;;5053062;28;20882;-82
2023/02/16 12:01:07;;;;;;;63.88;44.13;;;;;;;;;;5072931;28;20392;-82
2023/02/16 12:03:45;;;;;;;67.53;43.75;;;;;;;;;;5072495;28;20423;-82
2023/02/16 12:06:34;;;;;;;71.60;46.05;;;;;;;;;;5072996;28;20384;-83
2023/02/16 12:09:07;;;;;;;74.30;48.20;;;;;;;;;;5072989;28;20388;-82
2023/02/16 12:12:03;;;;;;;88.43;49.63;;;;;;;;;;5069228;28;20504;-83
2023/02/16 12:14:29;;;;;;;79.78;49.95;;;;;;;;;;5051924;28;20902;-84
2023/02/16 12:17:14;;;;;;;77.88;48.17;;;;;;;;;;5073044;28;20783;-85
2023/02/16 12:19:45;;;;;;;68.38;46.20;;;;;;;;;;5060469;28;20401;-81
2023/02/16 12:22:19;;;;;;;70.85;42.95;;;;;;;;;;5054317;28;20978;-80
2023/02/16 12:25:00;;;;;;;66.88;43.50;;;;;;;;;;5052286;28;20385;-80
2023/02/16 12:27:33;;;;;;;66.13;40.30;;;;;;;;;;5054448;28;20381;-79
2023/02/16 12:30:08;;;;;;;59.90;39.30;;;;;;;;;;5056814;28;20388;-81
2023/02/16 12:32:36;;;;;;;59.58;38.63;;;;;;;;;;5054492;28;20404;-81
2023/02/16 12:35:15;;;;;;;52.83;36.75;;;;;;;;;;5060585;28;20867;-81
2023/02/16 12:38:07;;;;;;;63.90;38.08;;;;;;;;;;5060984;28;20498;-83
2023/02/16 12:40:43;;;;;;;53.22;35.78;;;;;;;;;;5024003;28;20870;-84
2023/02/16 12:43:21;;;;;;;53.47;35.42;;;;;;;;;;5071934;28;20396;-84
2023/02/16 12:45:48;;;;;;;65.18;39.65;;;;;;;;;;5071972;28;20404;-83
2023/02/16 12:48:25;;;;;;;46.50;33.78;;;;;;;;;;5071723;28;20745;-84
2023/02/16 12:50:51;;;;;;;49.30;33.35;;;;;;;;;;5071865;28;20502;-84
2023/02/16 12:53:26;;;;;;;52.28;33.05;;;;;;;;;;5071861;28;20388;-84
2023/02/16 12:55:58;;;;;;;55.10;35.00;;;;;;;;;;5071586;28;20920;-85
2023/02/16 12:58:24;;;;;;;53.58;34.97;;;;;;;;;;5070561;28;20461;-84
2023/02/16 13:00:51;;;;;;;47.80;33.50;;;;;;;;;;5053628;28;20388;-84
2023/02/16 13:03:32;;;;;;;44.47;32.30;;;;;;;;;;5061542;28;20376;-82
2023/02/16 13:06:11;;;;;;;46.10;31.88;;;;;;;;;;5071592;28;20378;-83
2023/02/16 13:08:52;;;;;;;41.97;31.25;;;;;;;;;;5071862;28;20433;-83
2023/02/16 13:11:24;;;;;;;40.55;29.88;;;;;;;;;;5071643;28;20950;-83
2023/02/16 13:13:52;;;;;;;38.50;28.60;;;;;;;;;;5071649;28;20411;-82
2023/02/16 13:16:41;;;;;;;39.35;29.02;;;;;;;;;;5071381;28;20861;-82
2023/02/16 13:19:11;;;;;;;36.67;28.73;;;;;;;;;;5024670;28;20412;-82
2023/02/16 13:21:38;;;;;;;43.50;30.58;;;;;;;;;;5071431;28;20376;-82
2023/02/16 13:24:20;;;;;;;38.75;29.10;;;;;;;;;;5071526;28;20382;-82
2023/02/16 13:26:49;;;;;;;41.60;30.30;;;;;;;;;;5071432;28;20387;-83
2023/02/16 13:29:21;;;;;;;43.72;29.85;;;;;;;;;;5071592;28;20737;-82
2023/02/16 13:32:02;;;;;;;37.50;29.35;;;;;;;;;;5071330;28;20714;-83
2023/02/16 13:34:28;;;;;;;36.38;28.25;;;;;;;;;;5053266;28;20426;-82
2023/02/16 13:37:13;;;;;;;36.65;27.05;;;;;;;;;;5070828;28;21029;-82
2023/02/16 13:39:59;;;;;;;33.80;26.35;;;;;;;;;;5071226;28;20392;-83
2023/02/16 13:42:35;;;;;;;34.17;25.85;;;;;;;;;;5030690;28;20384;-83
2023/02/16 13:45:12;;;;;;;35.90;26.08;;;;;;;;;;5071100;28;20453;-82
2023/02/16 13:47:38;;;;;;;28.48;23.70;;;;;;;;;;5053545;28;20470;-83
2023/02/16 13:50:07;;;;;;;28.50;24.25;;;;;;;;;;5071414;28;20395;-82
2023/02/16 13:52:33;;;;;;;30.48;24.63;;;;;;;;;;5068760;28;20706;-83
2023/02/16 13:55:02;;;;;;;28.77;23.88;;;;;;;;;;5070907;28;20422;-83
2023/02/16 13:58:00;;;;;;;32.13;24.13;;;;;;;;;;5070920;28;20408;-82
2023/02/16 14:00:30;;;;;;;26.17;22.42;;;;;;;;;;5008198;28;20386;-83
2023/02/16 14:03:31;;;;;;;28.23;22.85;;;;;;;;;;5070744;28;20376;-82
2023/02/16 14:06:17;;;;;;;30.88;23.08;;;;;;;;;;4972513;28;20419;-81
2023/02/16 14:09:03;;;;;;;28.17;22.75;;;;;;;;;;5061357;28;20384;-82
2023/02/16 14:11:49;;;;;;;26.40;21.50;;;;;;;;;;5072594;28;20390;-82
2023/02/16 14:14:30;;;;;;;26.88;21.55;;;;;;;;;;5084903;22;20419;-82
2023/02/16 14:17:14;;;;;;;24.85;20.90;;;;;;;;;;5052742;28;20394;-82
2023/02/16 14:19:52;;;;;;;26.35;20.52;;;;;;;;;;5070916;28;20432;-82
2023/02/16 14:22:20;;;;;;;21.80;18.77;;;;;;;;;;5049910;28;20749;-82
2023/02/16 14:24:52;;;;;;;25.10;19.52;;;;;;;;;;5050903;28;20377;-82
2023/02/16 14:27:38;;;;;;;24.92;19.33;;;;;;;;;;5050520;28;20377;-82
2023/02/16 14:30:06;;;;;;;21.08;18.83;;;;;;;;;;5050726;28;20388;-82
2023/02/16 14:32:37;;;;;;;23.40;19.13;;;;;;;;;;5050467;28;20373;-82
2023/02/16 14:35:03;;;;;;;21.45;18.33;;;;;;;;;;5050859;28;20388;-82
2023/02/16 14:37:37;;;;;;;23.63;19.47;;;;;;;;;;5050770;28;20413;-82
2023/02/16 14:40:15;;;;;;;21.30;18.45;;;;;;;;;;5050773;28;20374;-82
2023/02/16 14:42:49;;;;;;;23.48;19.60;;;;;;;;;;5050668;28;20365;-82
2023/02/16 14:45:15;;;;;;;22.42;18.60;;;;;;;;;;5047490;28;20425;-82
2023/02/16 14:47:41;;;;;;;21.60;19.23;;;;;;;;;;5066284;28;20869;-82
2023/02/16 14:50:30;;;;;;;23.30;19.50;;;;;;;;;;5070391;28;20394;-82
2023/02/16 14:53:05;;;;;;;22.88;18.60;;;;;;;;;;5070437;28;20426;-82
2023/02/16 14:55:35;;;;;;;23.20;19.65;;;;;;;;;;5059063;28;20390;-83
2023/02/16 14:58:04;;;;;;;21.23;18.67;;;;;;;;;;5070514;28;20407;-82
2023/02/16 15:00:40;;;;;;;20.40;17.90;;;;;;;;;;5070586;28;20386;-82
2023/02/16 15:03:20;;;;;;;24.40;19.45;;;;;;;;;;5070722;28;20738;-82
2023/02/16 15:05:58;;;;;;;24.65;19.35;;;;;;;;;;5052400;28;20877;-82